createdAt,value
2018-01-20T00:00:52.174Z,3.14
2018-01-20T00:03:19.633Z,3.12
2018-01-20T00:05:47.106Z,3.22
2018-01-20T00:08:14.559Z,3.20
2018-01-20T00:10:53.856Z,3.11
2018-01-20T00:13:21.298Z,3.14
2018-01-20T00:15:48.768Z,3.13
2018-01-20T00:18:16.219Z,3.10
2018-01-20T00:20:43.685Z,3.10
2018-01-20T00:23:11.130Z,3.10
2018-01-20T00:25:38.620Z,3.09
2018-01-20T00:28:06.067Z,3.02
2018-01-20T00:30:33.536Z,3.07
2018-01-20T00:33:00.992Z,3.03
2018-01-20T00:35:28.466Z,2.96
2018-01-20T00:37:55.918Z,2.97
2018-01-20T00:40:23.383Z,3.06
2018-01-20T00:42:50.835Z,2.98
2018-01-20T00:45:18.316Z,3.00
2018-01-20T00:47:45.763Z,2.99
2018-01-20T00:50:13.212Z,3.12
2018-01-20T00:52:40.674Z,3.03
2018-01-20T00:55:08.125Z,3.08
2018-01-20T00:57:35.598Z,3.02
2018-01-20T01:00:03.044Z,3.08
2018-01-20T01:02:30.518Z,3.03
2018-01-20T01:04:57.962Z,3.04
2018-01-20T01:07:25.442Z,2.98
2018-01-20T01:09:52.890Z,2.93
2018-01-20T01:12:20.363Z,2.86
2018-01-20T01:14:47.814Z,2.88
2018-01-20T01:17:15.340Z,2.79
2018-01-20T01:19:42.754Z,2.73
2018-01-20T01:22:10.230Z,2.73
2018-01-20T01:24:37.694Z,2.72
2018-01-20T01:27:05.182Z,2.82
2018-01-20T01:29:32.631Z,2.87
2018-01-20T01:32:00.108Z,2.96
2018-01-20T01:34:27.562Z,3.11
2018-01-20T01:36:55.036Z,3.15
2018-01-20T01:39:22.483Z,3.15
2018-01-20T01:41:49.948Z,3.32
2018-01-20T01:44:17.411Z,3.39
2018-01-20T01:46:44.895Z,3.42
2018-01-20T01:49:12.346Z,3.44
2018-01-20T01:51:39.827Z,3.46
2018-01-20T01:54:07.279Z,3.48
2018-01-20T01:56:34.751Z,3.53
2018-01-20T01:59:02.202Z,3.46
2018-01-20T02:01:29.666Z,3.43
2018-01-20T02:03:57.124Z,3.53
2018-01-20T02:06:24.606Z,3.46
2018-01-20T02:08:52.050Z,3.45
2018-01-20T02:11:19.510Z,3.39
2018-01-20T02:13:46.982Z,3.43
2018-01-20T02:16:14.430Z,3.43
2018-01-20T02:18:41.899Z,3.39
2018-01-20T02:21:09.351Z,3.44
2018-01-20T02:23:36.826Z,3.39
2018-01-20T02:26:04.283Z,3.45
2018-01-20T02:28:31.746Z,3.35
2018-01-20T02:30:59.198Z,3.28
2018-01-20T02:33:26.695Z,3.24
2018-01-20T02:35:54.138Z,3.14
2018-01-20T02:38:21.610Z,3.13
2018-01-20T02:40:49.066Z,3.03
2018-01-20T02:43:16.530Z,2.92
2018-01-20T02:45:43.978Z,2.85
2018-01-20T02:48:11.459Z,2.81
2018-01-20T02:50:38.911Z,2.71
2018-01-20T02:53:06.387Z,2.73
2018-01-20T02:55:33.843Z,2.68
2018-01-20T02:58:01.307Z,2.72
2018-01-20T03:00:28.753Z,2.78
2018-01-20T03:02:56.218Z,2.78
2018-01-20T03:05:23.673Z,2.69
2018-01-20T03:07:51.146Z,2.84
2018-01-20T03:10:18.596Z,2.96
2018-01-20T03:12:46.071Z,3.02
2018-01-20T03:15:13.526Z,2.92
2018-01-20T03:17:40.994Z,2.91
2018-01-20T03:20:08.439Z,2.88
2018-01-20T03:22:35.920Z,2.95
2018-01-20T03:25:03.374Z,2.96
2018-01-20T03:27:30.855Z,2.95
2018-01-20T03:29:58.302Z,2.94
2018-01-20T03:32:25.752Z,2.93
2018-01-20T03:34:53.234Z,2.90
2018-01-20T03:37:20.686Z,2.83
2018-01-20T03:39:48.151Z,2.80
2018-01-20T03:42:15.595Z,2.75
2018-01-20T03:44:43.071Z,2.72
2018-01-20T03:47:10.531Z,2.67
2018-01-20T03:49:38.007Z,2.72
2018-01-20T03:52:05.459Z,2.75
2018-01-20T03:54:32.935Z,2.75
2018-01-20T03:57:00.873Z,2.72
2018-01-20T03:59:28.355Z,2.71
2018-01-20T04:01:55.812Z,2.62
2018-01-20T04:04:23.293Z,2.60
2018-01-20T04:06:50.750Z,2.60
2018-01-20T04:09:18.220Z,2.62
2018-01-20T04:11:45.670Z,2.48
2018-01-20T04:14:13.131Z,2.43
2018-01-20T04:16:40.583Z,2.49
2018-01-20T04:19:08.055Z,2.45
2018-01-20T04:21:35.506Z,2.35
2018-01-20T04:24:02.983Z,2.28
2018-01-20T04:26:30.442Z,2.23
2018-01-20T04:28:57.922Z,2.07
2018-01-20T04:31:25.371Z,2.00
2018-01-20T04:33:52.840Z,1.84
2018-01-20T04:36:20.295Z,1.88
2018-01-20T04:38:47.778Z,1.83
2018-01-20T04:41:15.227Z,1.70
2018-01-20T04:43:42.698Z,1.77
2018-01-20T04:46:10.147Z,1.87
2018-01-20T04:48:37.610Z,1.91
2018-01-20T04:51:05.062Z,2.01
2018-01-20T04:53:32.530Z,2.04
2018-01-20T04:55:59.998Z,1.93
2018-01-20T04:58:27.465Z,1.92
2018-01-20T05:00:54.930Z,2.00
2018-01-20T05:03:22.385Z,1.95
2018-01-20T05:05:49.890Z,1.94
2018-01-20T05:08:17.323Z,1.98
2018-01-20T05:10:44.807Z,2.05
2018-01-20T05:13:12.259Z,1.98
2018-01-20T05:15:41.054Z,2.07
2018-01-20T05:18:08.503Z,2.16
2018-01-20T05:20:35.973Z,2.13
2018-01-20T05:23:03.414Z,2.06
2018-01-20T05:25:30.884Z,2.11
2018-01-20T05:27:58.335Z,2.23
2018-01-20T05:30:25.803Z,2.18
2018-01-20T05:32:53.250Z,2.23
2018-01-20T05:35:20.737Z,2.15
2018-01-20T05:37:48.190Z,2.11
2018-01-20T05:40:15.654Z,2.05
2018-01-20T05:42:43.151Z,1.95
2018-01-20T05:45:10.585Z,1.96
2018-01-20T05:47:38.031Z,2.03
2018-01-20T05:50:05.512Z,2.07
2018-01-20T05:52:32.978Z,2.09
2018-01-20T05:55:00.443Z,1.93
2018-01-20T05:57:27.896Z,1.90
2018-01-20T05:59:55.371Z,1.90
2018-01-20T06:02:22.818Z,1.79
2018-01-20T06:04:50.290Z,1.65
2018-01-20T06:07:17.787Z,1.44
2018-01-20T06:09:45.250Z,1.31
2018-01-20T06:12:12.703Z,1.33
2018-01-20T06:14:40.178Z,1.39
2018-01-20T06:17:07.622Z,1.42
2018-01-20T06:19:35.089Z,1.38
2018-01-20T06:22:02.543Z,1.34
2018-01-20T06:24:29.995Z,1.38
2018-01-20T06:26:57.470Z,1.45
2018-01-20T06:29:24.925Z,1.44
2018-01-20T06:31:52.406Z,1.50
2018-01-20T06:34:19.863Z,1.51
2018-01-20T06:36:47.342Z,1.59
2018-01-20T06:39:14.794Z,1.68
2018-01-20T06:41:42.268Z,1.80
2018-01-20T06:44:09.722Z,1.77
2018-01-20T06:46:37.195Z,1.85
2018-01-20T06:49:04.639Z,1.88
2018-01-20T06:51:32.111Z,1.95
2018-01-20T06:53:59.558Z,1.81
2018-01-20T06:56:27.027Z,1.89
2018-01-20T06:58:54.478Z,1.77
2018-01-20T07:01:21.979Z,1.89
2018-01-20T07:03:49.431Z,1.84
2018-01-20T07:06:16.902Z,1.83
2018-01-20T07:08:44.359Z,1.75
2018-01-20T07:11:11.842Z,1.69
2018-01-20T07:13:39.290Z,1.62
2018-01-20T07:16:06.771Z,1.56
2018-01-20T07:18:34.226Z,1.55
2018-01-20T07:21:01.694Z,1.51
2018-01-20T07:23:33.413Z,1.63
2018-01-20T07:26:00.910Z,1.68
2018-01-20T07:28:28.354Z,1.54
2018-01-20T07:30:55.828Z,1.44
2018-01-20T07:33:23.294Z,1.35
2018-01-20T07:35:50.771Z,1.20
2018-01-20T07:38:18.233Z,1.10
2018-01-20T07:40:45.702Z,1.01
2018-01-20T07:43:13.156Z,0.92
2018-01-20T07:45:40.639Z,0.86
2018-01-20T07:48:08.093Z,0.84
2018-01-20T07:50:35.557Z,0.83
2018-01-20T07:53:03.059Z,0.83
2018-01-20T07:55:30.524Z,0.87
2018-01-20T07:57:57.991Z,0.88
2018-01-20T08:00:25.439Z,0.85
2018-01-20T08:02:52.901Z,0.85
2018-01-20T08:05:20.351Z,0.90
2018-01-20T08:07:47.823Z,0.90
2018-01-20T08:10:15.279Z,0.95
2018-01-20T08:12:42.751Z,1.06
2018-01-20T08:15:10.215Z,1.18
2018-01-20T08:17:37.683Z,1.29
2018-01-20T08:20:05.135Z,1.46
2018-01-20T08:22:32.604Z,1.65
2018-01-20T08:25:00.069Z,1.79
2018-01-20T08:27:27.560Z,1.93
2018-01-20T08:29:55.006Z,2.02
2018-01-20T08:32:22.478Z,2.07
2018-01-20T08:34:49.932Z,2.19
2018-01-20T08:37:17.408Z,2.35
2018-01-20T08:39:44.907Z,2.47
2018-01-20T08:42:12.368Z,2.61
2018-01-20T08:44:39.822Z,2.73
2018-01-20T08:47:07.290Z,3.00
2018-01-20T08:49:34.745Z,3.32
2018-01-20T08:52:02.214Z,3.61
2018-01-20T08:54:29.658Z,3.70
2018-01-20T08:56:57.134Z,3.93
2018-01-20T08:59:24.623Z,3.95
2018-01-20T09:01:52.086Z,3.99
2018-01-20T09:04:19.542Z,4.00
2018-01-20T09:06:47.018Z,4.11
2018-01-20T09:09:14.468Z,4.10
2018-01-20T09:11:41.921Z,4.17
2018-01-20T09:14:09.400Z,4.27
2018-01-20T09:16:36.853Z,4.35
2018-01-20T09:19:04.319Z,4.38
2018-01-20T09:21:31.802Z,4.47
2018-01-20T09:23:59.277Z,4.32
2018-01-20T09:26:26.734Z,4.46
2018-01-20T09:28:54.215Z,4.42
2018-01-20T09:31:21.665Z,4.65
2018-01-20T09:33:49.130Z,4.67
2018-01-20T09:36:16.583Z,4.50
2018-01-20T09:38:44.056Z,4.68
2018-01-20T09:41:11.499Z,4.69
2018-01-20T09:43:38.968Z,4.76
2018-01-20T09:46:06.429Z,4.73
2018-01-20T09:48:33.898Z,4.65
2018-01-20T09:51:01.343Z,4.63
2018-01-20T09:53:28.826Z,4.58
2018-01-20T09:55:56.278Z,4.76
2018-01-20T09:58:23.755Z,4.91
2018-01-20T10:00:51.219Z,4.83
2018-01-20T10:03:18.686Z,5.00
2018-01-20T10:05:46.131Z,4.96
2018-01-20T10:08:13.602Z,5.08
2018-01-20T10:10:41.059Z,4.94
2018-01-20T10:13:08.527Z,4.95
2018-01-20T10:15:35.970Z,4.96
2018-01-20T10:18:03.445Z,4.82
2018-01-20T10:20:30.894Z,4.79
2018-01-20T10:22:58.359Z,4.77
2018-01-20T10:25:25.811Z,4.88
2018-01-20T10:27:53.285Z,4.76
2018-01-20T10:30:20.745Z,4.84
2018-01-20T10:32:48.187Z,4.87
2018-01-20T10:35:15.656Z,4.92
2018-01-20T10:37:43.117Z,4.94
2018-01-20T10:40:10.590Z,5.00
2018-01-20T10:42:38.034Z,5.27
2018-01-20T10:45:05.511Z,5.09
2018-01-20T10:47:32.966Z,5.05
2018-01-20T10:50:00.439Z,5.28
2018-01-20T10:52:28.742Z,5.06
2018-01-20T10:54:56.219Z,5.18
2018-01-20T10:57:23.767Z,5.11
2018-01-20T10:59:51.243Z,5.11
2018-01-20T11:02:18.700Z,5.09
2018-01-20T11:04:46.176Z,5.15
2018-01-20T11:07:13.627Z,5.21
2018-01-20T11:09:41.100Z,5.12
2018-01-20T11:12:08.555Z,5.16
2018-01-20T11:14:36.026Z,5.27
2018-01-20T11:17:03.518Z,5.29
2018-01-20T11:19:31.141Z,5.35
2018-01-20T11:21:58.592Z,5.45
2018-01-20T11:24:26.075Z,5.55
2018-01-20T11:26:53.529Z,5.66
2018-01-20T11:29:21.007Z,5.57
2018-01-20T11:31:48.462Z,5.52
2018-01-20T11:34:15.949Z,5.65
2018-01-20T11:36:43.432Z,5.70
2018-01-20T11:39:10.912Z,5.42
2018-01-20T11:41:38.378Z,5.57
2018-01-20T11:44:05.851Z,5.40
2018-01-20T11:46:33.302Z,5.60
2018-01-20T11:49:00.790Z,5.37
2018-01-20T11:51:28.246Z,5.52
2018-01-20T11:53:55.792Z,5.40
2018-01-20T11:56:23.254Z,5.41
2018-01-20T11:58:50.723Z,5.40
2018-01-20T12:01:18.195Z,5.15
2018-01-20T12:03:45.683Z,5.22
2018-01-20T12:06:13.146Z,5.28
2018-01-20T12:08:40.594Z,5.07
2018-01-20T12:11:08.089Z,5.20
2018-01-20T12:13:35.607Z,5.15
2018-01-20T12:16:03.087Z,5.15
2018-01-20T12:18:30.538Z,4.91
2018-01-20T12:20:58.018Z,4.94
2018-01-20T12:23:25.485Z,5.03
2018-01-20T12:25:52.963Z,4.84
2018-01-20T12:28:20.429Z,4.71
2018-01-20T12:30:47.898Z,4.80
2018-01-20T12:33:15.351Z,4.89
2018-01-20T12:35:42.832Z,4.92
2018-01-20T12:38:10.282Z,4.69
2018-01-20T12:40:37.755Z,4.60
2018-01-20T12:43:05.207Z,4.56
2018-01-20T12:45:32.686Z,4.52
2018-01-20T12:48:00.123Z,4.48
2018-01-20T12:50:27.596Z,4.46
2018-01-20T12:52:55.044Z,4.49
2018-01-20T12:55:23.487Z,4.61
2018-01-20T12:57:50.975Z,4.46
2018-01-20T13:00:18.447Z,4.48
2018-01-20T13:02:45.895Z,4.58
2018-01-20T13:05:13.363Z,4.34
2018-01-20T13:07:40.815Z,4.53
2018-01-20T13:10:08.287Z,4.38
2018-01-20T13:12:35.746Z,4.33
2018-01-20T13:15:03.236Z,4.15
2018-01-20T13:17:30.683Z,4.20
2018-01-20T13:19:58.134Z,4.13
2018-01-20T13:22:25.663Z,4.22
2018-01-20T13:24:53.106Z,4.13
2018-01-20T13:27:20.571Z,4.15
2018-01-20T13:29:48.026Z,4.22
2018-01-20T13:32:15.497Z,4.16
2018-01-20T13:34:42.951Z,4.08
2018-01-20T13:37:10.424Z,4.14
2018-01-20T13:39:37.887Z,4.22
2018-01-20T13:42:05.362Z,4.25
2018-01-20T13:44:32.819Z,4.08
2018-01-20T13:47:00.299Z,4.08
2018-01-20T13:49:27.750Z,4.08
2018-01-20T13:51:55.214Z,4.10
2018-01-20T13:54:22.668Z,4.01
2018-01-20T13:56:50.131Z,3.97
2018-01-20T13:59:17.583Z,4.03
2018-01-20T14:01:45.069Z,3.86
2018-01-20T14:04:12.527Z,3.78
2018-01-20T14:06:39.999Z,3.85
2018-01-20T14:09:07.467Z,3.85
2018-01-20T14:11:34.947Z,3.77
2018-01-20T14:14:02.396Z,3.80
2018-01-20T14:16:29.872Z,3.84
2018-01-20T14:18:57.343Z,3.72
2018-01-20T14:21:24.823Z,3.84
2018-01-20T14:23:52.299Z,3.90
2018-01-20T14:26:19.762Z,3.79
2018-01-20T14:28:47.210Z,3.83
2018-01-20T14:31:14.676Z,3.69
2018-01-20T14:33:42.127Z,3.74
2018-01-20T14:36:09.613Z,3.64
2018-01-20T14:38:37.058Z,3.60
2018-01-20T14:41:04.508Z,3.62
2018-01-20T14:43:31.975Z,3.53
2018-01-20T14:45:59.431Z,3.49
2018-01-20T14:48:26.907Z,3.53
2018-01-20T14:50:54.355Z,3.39
2018-01-20T14:53:21.831Z,3.44
2018-01-20T14:55:49.279Z,3.39
2018-01-20T14:58:16.751Z,3.33
2018-01-20T15:00:44.195Z,3.28
2018-01-20T15:03:11.710Z,3.30
2018-01-20T15:05:39.159Z,3.30
2018-01-20T15:08:06.634Z,3.21
2018-01-20T15:10:34.099Z,3.26
2018-01-20T15:13:01.583Z,3.28
2018-01-20T15:15:29.044Z,3.26
2018-01-20T15:17:57.334Z,3.29
2018-01-20T15:20:24.791Z,3.23
2018-01-20T15:22:52.272Z,3.23
2018-01-20T15:25:19.725Z,3.21
2018-01-20T15:27:47.196Z,3.15
2018-01-20T15:30:14.651Z,3.18
2018-01-20T15:32:42.132Z,3.12
2018-01-20T15:35:09.614Z,3.13
2018-01-20T15:37:37.079Z,3.09
2018-01-20T15:40:05.355Z,3.09
2018-01-20T15:42:32.895Z,3.09
2018-01-20T15:45:00.351Z,3.07
2018-01-20T15:47:27.834Z,3.00
2018-01-20T15:49:55.287Z,2.99
2018-01-20T15:52:22.760Z,2.96
2018-01-20T15:54:50.215Z,2.93
2018-01-20T15:57:17.678Z,2.93
2018-01-20T15:59:45.138Z,2.96
2018-01-20T16:02:12.624Z,2.96
2018-01-20T16:04:40.084Z,2.94
2018-01-20T16:07:07.534Z,2.93
2018-01-20T16:09:35.013Z,2.90
2018-01-20T16:12:02.470Z,2.91
2018-01-20T16:14:29.957Z,2.93
2018-01-20T16:16:57.422Z,2.91
2018-01-20T16:19:24.886Z,2.89
2018-01-20T16:21:52.336Z,2.89
2018-01-20T16:24:19.816Z,2.86
2018-01-20T16:26:47.274Z,2.85
2018-01-20T16:29:14.746Z,2.83
2018-01-20T16:31:42.228Z,2.78
2018-01-20T16:34:09.707Z,2.76
2018-01-20T16:36:37.179Z,2.71
2018-01-20T16:39:04.671Z,2.70
2018-01-20T16:41:32.162Z,2.71
2018-01-20T16:43:59.687Z,2.71
2018-01-20T16:46:27.150Z,2.73
2018-01-20T16:48:54.629Z,2.71
2018-01-20T16:51:22.104Z,2.74
2018-01-20T16:53:49.578Z,2.80
2018-01-20T16:56:17.035Z,2.79
2018-01-20T16:58:44.515Z,2.81
2018-01-20T17:01:11.963Z,2.82
2018-01-20T17:03:39.472Z,2.83
2018-01-20T17:06:06.929Z,2.82
2018-01-20T17:08:34.403Z,2.88
2018-01-20T17:11:01.871Z,2.84
2018-01-20T17:13:29.342Z,2.90
2018-01-20T17:15:56.839Z,2.87
2018-01-20T17:18:24.350Z,2.88
2018-01-20T17:20:51.802Z,2.90
2018-01-20T17:23:19.277Z,2.94
2018-01-20T17:25:46.786Z,2.93
2018-01-20T17:28:14.288Z,2.90
2018-01-20T17:30:41.766Z,2.94
2018-01-20T17:33:09.262Z,2.91
2018-01-20T17:35:36.786Z,2.90
2018-01-20T17:38:04.256Z,2.89
2018-01-20T17:40:31.727Z,2.89
2018-01-20T17:42:59.275Z,2.86
2018-01-20T17:45:26.764Z,2.90
2018-01-20T17:47:54.230Z,2.87
2018-01-20T17:50:21.707Z,2.96
2018-01-20T17:52:49.237Z,2.93
2018-01-20T17:55:16.820Z,2.94
2018-01-20T17:57:44.299Z,3.00
2018-01-20T18:00:11.819Z,3.03
2018-01-20T18:02:39.320Z,2.99
2018-01-20T18:05:06.823Z,2.95
2018-01-20T18:07:34.321Z,2.97
2018-01-20T18:10:01.843Z,2.95
2018-01-20T18:12:29.353Z,2.89
2018-01-20T18:14:56.923Z,2.91
2018-01-20T18:17:24.455Z,2.94
2018-01-20T18:19:51.954Z,2.90
2018-01-20T18:22:19.423Z,2.92
2018-01-20T18:24:46.947Z,2.94
2018-01-20T18:27:14.415Z,2.94
2018-01-20T18:29:42.070Z,2.91
2018-01-20T18:32:11.526Z,2.92
2018-01-20T18:34:39.016Z,2.93
2018-01-20T18:37:06.482Z,2.95
2018-01-20T18:39:33.975Z,2.92
2018-01-20T18:42:01.434Z,2.92
2018-01-20T18:44:28.935Z,2.94
2018-01-20T18:46:56.391Z,2.93
2018-01-20T18:49:24.244Z,2.94
2018-01-20T18:51:51.703Z,2.97
2018-01-20T18:54:19.203Z,2.93
2018-01-20T18:56:46.687Z,2.96
2018-01-20T18:59:14.219Z,2.94
2018-01-20T19:01:41.784Z,3.00
2018-01-20T19:04:09.347Z,3.03
2018-01-20T19:06:37.201Z,3.06
2018-01-20T19:09:04.764Z,3.04
2018-01-20T19:11:32.378Z,3.08
2018-01-20T19:13:59.928Z,3.08
2018-01-20T19:16:27.455Z,3.09
2018-01-20T19:18:55.221Z,3.10
2018-01-20T19:21:22.885Z,3.16
2018-01-20T19:23:50.420Z,3.08
2018-01-20T19:26:17.919Z,3.12
2018-01-20T19:28:45.499Z,3.06
2018-01-20T19:31:18.480Z,3.10
2018-01-20T19:33:46.025Z,2.79
2018-01-20T19:36:13.619Z,2.69
2018-01-20T19:38:41.222Z,2.84
2018-01-20T19:41:08.867Z,2.75
2018-01-20T19:43:36.616Z,2.59
2018-01-20T19:46:04.225Z,2.56
2018-01-20T19:48:31.821Z,2.54
2018-01-20T19:50:59.391Z,2.55
2018-01-20T19:53:26.952Z,2.55
2018-01-20T19:55:54.548Z,2.50
2018-01-20T19:58:22.155Z,2.47
2018-01-20T20:00:49.852Z,2.48
2018-01-20T20:03:17.403Z,2.55
2018-01-20T20:05:45.010Z,2.55
2018-01-20T20:08:12.592Z,2.51
2018-01-20T20:10:45.653Z,2.52
2018-01-20T20:13:13.257Z,2.50
2018-01-20T20:15:40.856Z,2.53
2018-01-20T20:18:08.520Z,2.49
2018-01-20T20:20:36.070Z,2.45
2018-01-20T20:23:03.621Z,2.47
2018-01-20T20:25:31.168Z,2.38
2018-01-20T20:27:58.969Z,2.40
2018-01-20T20:30:26.541Z,2.43
2018-01-20T20:32:54.126Z,2.45
2018-01-20T20:35:21.734Z,2.37
2018-01-20T20:37:49.313Z,2.38
2018-01-20T20:40:16.928Z,2.36
2018-01-20T20:42:44.565Z,2.38
2018-01-20T20:45:12.844Z,2.36
2018-01-20T20:47:40.563Z,2.45
2018-01-20T20:50:08.132Z,2.37
2018-01-20T20:52:35.724Z,2.34
2018-01-20T20:55:03.358Z,2.39
2018-01-20T20:57:30.852Z,2.39
2018-01-20T20:59:58.408Z,2.30
2018-01-20T21:02:26.053Z,2.36
2018-01-20T21:04:53.648Z,2.39
2018-01-20T21:07:21.228Z,2.40
2018-01-20T21:09:59.149Z,2.36
2018-01-20T21:12:26.755Z,2.39
2018-01-20T21:14:54.291Z,2.35
2018-01-20T21:17:21.900Z,2.29
2018-01-20T21:19:49.509Z,2.39
2018-01-20T21:22:17.436Z,2.32
2018-01-20T21:24:44.989Z,2.31
2018-01-20T21:27:12.646Z,2.35
2018-01-20T21:29:40.264Z,2.36
2018-01-20T21:32:07.916Z,2.36
2018-01-20T21:34:35.485Z,2.37
2018-01-20T21:37:03.083Z,2.42
2018-01-20T21:39:30.704Z,2.45
2018-01-20T21:41:58.339Z,2.42
2018-01-20T21:44:25.946Z,2.48
2018-01-20T21:46:53.508Z,2.50
2018-01-20T21:49:34.368Z,2.55
2018-01-20T21:52:01.950Z,2.52
2018-01-20T21:54:29.522Z,2.60
2018-01-20T21:56:57.155Z,2.59
2018-01-20T21:59:24.762Z,2.52
2018-01-20T22:01:52.423Z,2.60
2018-01-20T22:04:20.037Z,2.58
2018-01-20T22:06:47.798Z,2.62
2018-01-20T22:09:15.532Z,2.58
2018-01-20T22:11:43.125Z,2.62
2018-01-20T22:14:10.833Z,2.54
2018-01-20T22:16:38.451Z,2.66
2018-01-20T22:19:05.971Z,2.65
2018-01-20T22:21:33.736Z,2.59
2018-01-20T22:24:01.362Z,2.58
2018-01-20T22:26:28.939Z,2.65
2018-01-20T22:28:56.612Z,2.60
2018-01-20T22:31:24.306Z,2.60
2018-01-20T22:34:04.732Z,2.62
2018-01-20T22:36:32.271Z,2.63
2018-01-20T22:39:00.396Z,2.66
2018-01-20T22:41:27.973Z,2.70
2018-01-20T22:43:55.628Z,2.76
2018-01-20T22:46:23.167Z,2.67
2018-01-20T22:48:50.845Z,2.64
2018-01-20T22:51:18.505Z,2.66
2018-01-20T22:53:46.104Z,2.67
2018-01-20T22:56:13.683Z,2.70
2018-01-20T22:58:41.188Z,2.72
2018-01-20T23:01:18.388Z,2.74
2018-01-20T23:03:45.980Z,2.72
2018-01-20T23:06:13.576Z,2.74
2018-01-20T23:08:41.265Z,2.73
2018-01-20T23:11:08.749Z,2.73
2018-01-20T23:13:36.287Z,2.73
2018-01-20T23:16:03.752Z,2.71
2018-01-20T23:18:31.265Z,2.73
2018-01-20T23:20:58.731Z,2.77
2018-01-20T23:23:26.223Z,2.79
2018-01-20T23:25:53.856Z,2.73
2018-01-20T23:28:21.468Z,2.74
2018-01-20T23:30:49.008Z,2.76
2018-01-20T23:33:16.631Z,2.75
2018-01-20T23:35:44.261Z,2.73
2018-01-20T23:38:11.909Z,2.73
2018-01-20T23:40:39.484Z,2.69
2018-01-20T23:43:07.080Z,2.72
2018-01-20T23:45:34.620Z,2.75
2018-01-20T23:48:02.168Z,2.69
2018-01-20T23:50:29.766Z,2.74
2018-01-20T23:52:57.388Z,2.71
2018-01-20T23:55:25.021Z,2.71
2018-01-20T23:57:53.383Z,2.74
